This is the latest recevied weather packets stored in our database for station/object WD5U-1. If no packets are shown the sender has not sent any weather packets the latest 10 day(s).
| Time | Temp. | Humidity | Pressure | Rain* | Wind** | Luminosity | Snow |
|---|---|---|---|---|---|---|---|
| 1778108178 | 16.67° C | 70% | 1016 hPa | 0 mm | - | - | - |
| 1778107584 | 16.67° C | 70% | 1016 hPa | 0 mm | - | - | - |
| 1778107480 | 17.22° C | 70% | 1016.1 hPa | 0 mm | - | - | - |
| 1778106862 | 17.22° C | 68% | 1015.8 hPa | 0 mm | - | - | - |
| 1778106265 | 18.33° C | 68% | 1015.9 hPa | 0 mm | - | - | - |
| 1778105921 | 18.33° C | 67% | 1015.6 hPa | 0 mm | - | - | - |
| 1778105425 | 18.33° C | 65% | 1015.6 hPa | 0 mm | - | - | - |
| 1778104716 | 17.78° C | 66% | 1015.8 hPa | 0 mm | - | - | - |
| 1778104220 | 17.78° C | 67% | 1015.7 hPa | 0 mm | - | - | - |
| 1778101579 | 17.78° C | 67% | 1015.8 hPa | 0 mm | - | - | - |
| 1778100981 | 18.33° C | 65% | 1016 hPa | 0 mm | - | - | - |
| 1778100738 | 17.78° C | 66% | 1015.9 hPa | 0 mm | - | - | - |
| 1778100617 | 17.78° C | 65% | 1016.1 hPa | 0 mm | - | - | - |
| 1778098218 | 18.33° C | 64% | 1016.5 hPa | 0 mm | - | - | - |
| 1778097864 | 18.89° C | 62% | 1016.6 hPa | 0 mm | - | - | - |
| 1778097023 | 17.22° C | 65% | 1016.3 hPa | 0 mm | - | - | - |
| 1778096902 | 17.22° C | 66% | 1016.2 hPa | 0 mm | - | - | - |
| 1778096659 | 18.89° C | 61% | 1016.3 hPa | 0 mm | - | - | - |
| 1778096539 | 17.78° C | 65% | 1016.3 hPa | 0 mm | - | - | - |
| 1778096062 | 18.33° C | 64% | 1016 hPa | 0 mm | - | - | - |
| 1778094280 | 16.67° C | 67% | 1015.8 hPa | 0 mm | - | - | - |
| 1778094138 | 17.78° C | 65% | 1015.8 hPa | 0 mm | - | - | - |
| 1778094038 | 17.22° C | 68% | 1015.9 hPa | 0 mm | - | - | - |
| 1778093907 | 16.67° C | 68% | 1015.9 hPa | 0 mm | - | - | - |
| 1778093786 | 16.11° C | 68% | 1016 hPa | 0 mm | - | - | - |
* Rain latest hour (hover to see other rain measurements)
** Current wind speed in m/s (hover to see current wind gust speed)